Time;durP1;ratioP1;P1;durP2;ratioP2;P2;SDS_P1;SDS_P2;PMS_P1;PMS_P2;Temp;Humidity;BMP_temperature;BMP_pressure;BME280_temperature;BME280_humidity;BME280_pressure;Samples;Min_cycle;Max_cycle;Signal;HPM_P1;HPM_P2
2022/12/18 00:02:24;;;;;;;44.00;20.50;;;-6.00;99.90;;;;;;10434665;28;20308;-75
2022/12/18 00:07:25;;;;;;;38.70;18.80;;;-6.00;99.90;;;;;;10434871;28;20244;-77
2022/12/18 00:12:25;;;;;;;42.27;19.70;;;-6.00;99.90;;;;;;10427974;28;20299;-76
2022/12/18 00:17:26;;;;;;;39.47;20.00;;;-6.00;99.90;;;;;;10442337;28;20611;-76
2022/12/18 00:22:27;;;;;;;45.90;20.13;;;-6.00;99.90;;;;;;10441578;28;20224;-77
2022/12/18 00:27:27;;;;;;;43.63;19.60;;;-6.00;99.90;;;;;;10434212;28;20216;-76
2022/12/18 00:32:28;;;;;;;44.43;19.50;;;-6.00;99.90;;;;;;10433657;28;20317;-75
2022/12/18 00:37:28;;;;;;;44.37;19.77;;;-6.00;99.90;;;;;;10433286;28;20318;-76
2022/12/18 00:48:02;;;;;;;40.67;20.53;;;-6.00;99.90;;;;;;10403132;28;20267;-76
2022/12/18 00:53:03;;;;;;;40.77;20.03;;;-6.00;99.90;;;;;;10434570;28;20258;-76
2022/12/18 00:58:03;;;;;;;44.07;20.57;;;-6.10;99.90;;;;;;10428276;28;20302;-76
2022/12/18 01:03:05;;;;;;;36.00;18.93;;;-6.10;99.90;;;;;;10434146;28;20647;-76
2022/12/18 01:08:05;;;;;;;37.73;19.60;;;-6.00;99.90;;;;;;10428065;28;20691;-75
2022/12/18 01:13:06;;;;;;;46.00;20.67;;;-6.00;99.90;;;;;;10435050;28;20273;-76
2022/12/18 01:18:07;;;;;;;40.40;21.60;;;-6.00;99.90;;;;;;10437084;28;20227;-76
2022/12/18 01:23:07;;;;;;;38.37;19.57;;;-6.00;99.90;;;;;;10434363;28;20224;-75
2022/12/18 01:28:08;;;;;;;38.57;20.90;;;-6.00;99.90;;;;;;10428031;28;20220;-76
2022/12/18 01:33:08;;;;;;;39.93;20.77;;;-6.10;99.90;;;;;;10435503;28;20314;-76
2022/12/18 01:38:09;;;;;;;40.77;20.00;;;-6.10;99.90;;;;;;10433799;28;20227;-77
2022/12/18 01:43:10;;;;;;;43.77;21.27;;;-6.10;99.90;;;;;;10428860;28;20244;-76
2022/12/18 01:48:10;;;;;;;41.13;20.87;;;-6.10;99.90;;;;;;10432938;28;20699;-76
2022/12/18 01:53:17;;;;;;;38.33;20.23;;;-6.20;99.90;;;;;;10433971;28;20220;-77
2022/12/18 01:58:19;;;;;;;36.77;19.37;;;-6.30;99.90;;;;;;10438847;28;20279;-76
2022/12/18 02:03:20;;;;;;;40.67;21.23;;;-6.50;99.90;;;;;;10427298;28;20220;-70
2022/12/18 02:08:26;;;;;;;39.37;20.37;;;-6.50;99.90;;;;;;10433727;28;20211;-70
2022/12/18 02:13:40;;;;;;;39.93;20.43;;;-6.50;99.90;;;;;;10435581;28;20343;-69
2022/12/18 02:18:49;;;;;;;43.60;20.17;;;-6.50;99.90;;;;;;10423091;28;20705;-70
2022/12/18 02:24:18;;;;;;;39.33;20.63;;;-6.50;99.90;;;;;;10430314;28;20295;-69
2022/12/18 02:29:34;;;;;;;39.33;20.50;;;-6.50;99.90;;;;;;10425819;28;20238;-70
2022/12/18 02:34:38;;;;;;;42.70;19.77;;;-6.40;99.90;;;;;;10427165;28;20219;-70
2022/12/18 02:39:42;;;;;;;38.83;19.13;;;-6.40;99.90;;;;;;10425459;28;20247;-70
2022/12/18 02:44:45;;;;;;;38.87;21.07;;;-6.40;99.90;;;;;;10434318;28;20232;-69
2022/12/18 02:49:58;;;;;;;38.00;20.43;;;-6.40;99.90;;;;;;10424778;28;20290;-70
2022/12/18 02:55:29;;;;;;;37.20;19.23;;;-6.30;99.90;;;;;;10422752;28;20298;-69
2022/12/18 03:00:34;;;;;;;40.50;20.43;;;-6.20;99.90;;;;;;10427037;28;20304;-69
2022/12/18 03:05:55;;;;;;;41.70;21.93;;;-6.20;99.90;;;;;;10426925;28;20211;-69
2022/12/18 03:11:01;;;;;;;35.60;19.10;;;-6.20;99.90;;;;;;10431387;28;20227;-70
2022/12/18 03:16:05;;;;;;;40.90;20.33;;;-6.20;99.90;;;;;;10423348;28;20236;-69
2022/12/18 03:21:07;;;;;;;41.80;20.80;;;-6.20;99.90;;;;;;10428515;28;20220;-69
2022/12/18 03:26:12;;;;;;;40.70;20.70;;;-6.30;99.90;;;;;;10422354;28;20217;-70
2022/12/18 03:31:14;;;;;;;35.87;19.83;;;-6.40;99.90;;;;;;10428522;28;20251;-69
2022/12/18 03:36:15;;;;;;;41.40;20.73;;;-6.40;99.90;;;;;;10424143;28;20234;-69
2022/12/18 03:41:21;;;;;;;35.47;20.43;;;-6.40;99.90;;;;;;10427802;28;20212;-71
2022/12/18 03:46:33;;;;;;;38.53;19.63;;;-6.40;99.90;;;;;;10424902;28;20692;-69
2022/12/18 03:51:52;;;;;;;36.13;19.33;;;-6.60;99.90;;;;;;10425724;28;20220;-69
2022/12/18 03:57:03;;;;;;;39.03;22.00;;;-6.60;99.90;;;;;;10438034;28;20285;-70
2022/12/18 04:02:04;;;;;;;41.47;20.10;;;-6.60;99.90;;;;;;10431247;28;20224;-70
2022/12/18 04:07:06;;;;;;;42.40;22.00;;;-6.70;99.90;;;;;;10433686;28;20587;-70
2022/12/18 04:12:08;;;;;;;38.40;20.43;;;-6.70;99.90;;;;;;10428101;28;20217;-69
2022/12/18 04:17:08;;;;;;;39.70;19.40;;;-6.70;99.90;;;;;;10434184;28;20312;-69
2022/12/18 04:22:12;;;;;;;40.57;20.47;;;-6.70;99.90;;;;;;10442745;28;20230;-69
2022/12/18 04:27:13;;;;;;;34.80;18.87;;;-6.70;99.90;;;;;;10430020;28;20225;-69
2022/12/18 04:32:13;;;;;;;36.97;18.77;;;-6.70;99.90;;;;;;10433213;28;20304;-70
2022/12/18 04:37:14;;;;;;;41.77;22.33;;;-6.70;99.90;;;;;;10428945;28;20232;-70
2022/12/18 04:42:14;;;;;;;39.87;20.47;;;-6.70;99.90;;;;;;10433164;28;20230;-69
2022/12/18 04:47:15;;;;;;;39.20;19.60;;;-6.60;99.90;;;;;;10433863;28;20230;-70
2022/12/18 04:52:15;;;;;;;42.83;20.33;;;-6.60;99.90;;;;;;10437599;28;20213;-70
2022/12/18 04:57:17;;;;;;;41.57;21.03;;;-6.60;99.90;;;;;;10433187;28;20228;-69
2022/12/18 05:02:18;;;;;;;33.30;19.03;;;-6.60;99.90;;;;;;10438041;28;20228;-69
2022/12/18 05:07:18;;;;;;;40.07;20.40;;;-6.70;99.90;;;;;;10432709;28;20235;-69
2022/12/18 05:12:22;;;;;;;36.60;18.83;;;-6.70;99.90;;;;;;10428343;28;20238;-69
2022/12/18 05:17:22;;;;;;;38.67;20.47;;;-6.70;99.90;;;;;;10430326;28;20363;-70
2022/12/18 05:22:24;;;;;;;40.13;20.23;;;-6.70;99.90;;;;;;10428574;28;20639;-70
2022/12/18 05:27:25;;;;;;;37.27;18.87;;;-6.80;99.90;;;;;;10429628;28;20602;-70
2022/12/18 05:32:25;;;;;;;35.60;18.23;;;-6.70;99.90;;;;;;10429605;28;20230;-72
2022/12/18 05:37:26;;;;;;;36.23;20.13;;;-6.70;99.90;;;;;;10434057;28;20774;-70
2022/12/18 05:42:30;;;;;;;35.97;18.63;;;-6.60;99.90;;;;;;10432603;28;20216;-71
2022/12/18 05:47:34;;;;;;;36.10;19.40;;;-6.70;99.90;;;;;;10429163;28;20324;-69
2022/12/18 05:52:34;;;;;;;35.87;19.17;;;-6.60;99.90;;;;;;10432997;28;20572;-70
2022/12/18 05:57:35;;;;;;;39.90;19.80;;;-6.70;99.90;;;;;;10428718;28;20294;-70
2022/12/18 06:02:36;;;;;;;41.47;20.63;;;-6.60;99.90;;;;;;10427925;28;20224;-70
2022/12/18 06:07:36;;;;;;;39.37;20.70;;;-6.60;99.90;;;;;;10444662;28;20303;-70
2022/12/18 06:12:37;;;;;;;34.73;18.63;;;-6.50;99.90;;;;;;10426280;28;20674;-70
2022/12/18 06:17:38;;;;;;;35.70;19.20;;;-6.50;99.90;;;;;;10428572;28;20232;-70
2022/12/18 06:22:38;;;;;;;34.73;18.10;;;-6.50;99.90;;;;;;10424731;28;20760;-70
2022/12/18 06:27:39;;;;;;;34.53;18.17;;;-6.50;99.90;;;;;;10434352;28;20807;-70
2022/12/18 06:32:39;;;;;;;34.30;18.07;;;-6.70;99.90;;;;;;10429850;28;20247;-70
2022/12/18 06:37:40;;;;;;;32.67;16.83;;;-6.80;99.90;;;;;;10426514;28;20274;-69
2022/12/18 06:42:40;;;;;;;32.47;17.43;;;-7.00;99.90;;;;;;10428011;28;20269;-70
2022/12/18 06:47:41;;;;;;;32.57;16.80;;;-7.10;99.90;;;;;;10439888;28;20223;-69
2022/12/18 06:52:43;;;;;;;33.10;17.10;;;-7.20;99.90;;;;;;10426235;28;20221;-71
2022/12/18 06:57:44;;;;;;;34.57;16.87;;;-7.30;99.90;;;;;;10434375;28;20228;-69
2022/12/18 07:02:44;;;;;;;36.27;18.37;;;-7.30;99.90;;;;;;10428625;28;20586;-69
2022/12/18 07:07:45;;;;;;;38.67;17.90;;;-7.30;99.90;;;;;;10436698;28;20227;-69
2022/12/18 07:12:46;;;;;;;39.00;18.37;;;-7.20;99.90;;;;;;10424565;28;20307;-71
2022/12/18 07:17:46;;;;;;;40.37;19.87;;;-7.20;99.90;;;;;;10427908;28;20231;-70
2022/12/18 07:22:47;;;;;;;37.57;17.57;;;-7.20;99.90;;;;;;10423314;28;20312;-70
2022/12/18 07:27:47;;;;;;;36.63;17.10;;;-7.20;99.90;;;;;;10431385;28;20594;-69
2022/12/18 07:32:48;;;;;;;31.73;16.63;;;-7.10;99.90;;;;;;10432749;28;20734;-70
2022/12/18 07:37:48;;;;;;;37.70;16.90;;;-7.10;99.90;;;;;;10434915;28;20290;-70
2022/12/18 07:42:49;;;;;;;37.73;17.37;;;-7.20;99.90;;;;;;10432081;28;20270;-70
2022/12/18 07:47:50;;;;;;;38.20;17.93;;;-7.20;99.90;;;;;;10435995;28;20274;-70
2022/12/18 07:52:50;;;;;;;34.17;16.63;;;-7.10;99.90;;;;;;10437624;28;20227;-70
2022/12/18 07:57:51;;;;;;;36.20;18.13;;;-7.00;99.90;;;;;;10441783;28;20335;-70
2022/12/18 08:02:51;;;;;;;35.13;16.67;;;-6.90;99.90;;;;;;10437781;28;20269;-70
2022/12/18 08:07:52;;;;;;;36.63;16.60;;;-6.80;99.90;;;;;;10437548;28;20281;-71
2022/12/18 08:12:53;;;;;;;31.93;15.77;;;-6.70;99.90;;;;;;10430711;28;20683;-70
2022/12/18 08:17:56;;;;;;;34.23;15.97;;;-6.60;99.90;;;;;;10447387;28;20220;-70
2022/12/18 08:22:57;;;;;;;35.50;16.53;;;-6.50;99.90;;;;;;10429643;28;20588;-69
2022/12/18 08:27:58;;;;;;;34.83;15.43;;;-6.40;99.90;;;;;;10437605;28;20224;-71
2022/12/18 08:32:59;;;;;;;38.73;17.47;;;-6.10;99.90;;;;;;10443646;28;20208;-71
2022/12/18 08:37:59;;;;;;;34.80;17.73;;;-5.80;99.90;;;;;;10428073;28;20224;-70
2022/12/18 08:48:19;;;;;;;32.63;17.03;;;-4.60;99.90;;;;;;10430733;28;20231;-71
2022/12/18 08:53:20;;;;;;;31.93;16.50;;;-0.40;99.90;;;;;;10433296;28;20634;-70
2022/12/18 08:58:22;;;;;;;26.17;15.67;;;2.90;99.90;;;;;;10438740;28;20235;-71
2022/12/18 09:03:22;;;;;;;27.20;17.53;;;5.20;92.00;;;;;;10432582;28;20228;-70
2022/12/18 09:08:23;;;;;;;28.10;18.33;;;6.80;74.40;;;;;;10428259;28;20685;-70
2022/12/18 09:13:24;;;;;;;26.73;18.67;;;8.10;62.90;;;;;;10430608;28;20236;-69
2022/12/18 09:18:24;;;;;;;31.40;20.07;;;9.30;57.90;;;;;;10425563;28;20656;-70
2022/12/18 09:23:25;;;;;;;28.07;20.07;;;9.30;55.10;;;;;;10430624;28;20257;-70
2022/12/18 09:28:27;;;;;;;30.17;21.27;;;10.10;54.10;;;;;;10429953;28;20219;-70
2022/12/18 09:33:27;;;;;;;26.83;20.47;;;10.80;51.10;;;;;;10431045;28;20216;-71
2022/12/18 09:38:28;;;;;;;30.73;22.33;;;11.50;50.40;;;;;;10430594;28;20613;-70
2022/12/18 09:43:41;;;;;;;30.27;23.30;;;12.00;48.10;;;;;;10430656;28;20707;-70
2022/12/18 09:48:46;;;;;;;28.80;22.33;;;13.20;46.90;;;;;;10430439;28;20239;-70
2022/12/18 09:53:56;;;;;;;28.33;21.83;;;13.50;45.30;;;;;;10433384;28;20226;-70
2022/12/18 09:58:59;;;;;;;29.30;21.60;;;9.40;51.60;;;;;;10425927;28;20224;-70
2022/12/18 10:04:00;;;;;;;28.60;22.17;;;7.60;55.90;;;;;;10431420;28;20310;-69
2022/12/18 10:09:24;;;;;;;31.07;21.43;;;6.10;59.90;;;;;;10432397;28;20822;-69
2022/12/18 10:14:44;;;;;;;31.30;21.50;;;5.10;64.50;;;;;;10427661;28;20219;-70
2022/12/18 10:20:03;;;;;;;31.73;21.40;;;4.40;68.10;;;;;;10433893;28;20217;-69
2022/12/18 10:25:39;;;;;;;32.80;21.63;;;5.50;67.10;;;;;;10434314;28;20239;-70
2022/12/18 10:30:41;;;;;;;35.67;22.37;;;5.70;65.90;;;;;;10429262;28;20224;-69
2022/12/18 10:35:44;;;;;;;32.40;21.83;;;5.20;66.40;;;;;;10426223;28;20224;-70
2022/12/18 10:41:18;;;;;;;35.20;22.00;;;3.40;73.10;;;;;;10432191;28;20236;-70
2022/12/18 10:46:22;;;;;;;38.10;22.33;;;2.50;78.00;;;;;;10430945;28;20255;-69
2022/12/18 10:51:35;;;;;;;38.13;22.23;;;1.70;83.40;;;;;;10431306;28;20231;-70
2022/12/18 10:56:37;;;;;;;35.10;21.40;;;1.30;86.40;;;;;;10426557;28;20286;-70
2022/12/18 11:01:57;;;;;;;38.07;21.13;;;1.70;87.20;;;;;;10431017;28;20231;-69
2022/12/18 11:07:02;;;;;;;42.63;23.67;;;0.90;89.00;;;;;;10447925;28;20223;-69
2022/12/18 11:12:14;;;;;;;35.17;20.27;;;1.40;90.10;;;;;;10447433;28;20220;-70
2022/12/18 11:17:21;;;;;;;35.07;20.43;;;1.80;88.70;;;;;;10436266;28;20227;-71
2022/12/18 11:22:31;;;;;;;35.50;20.47;;;0.60;90.60;;;;;;10434463;28;20226;-70
2022/12/18 11:27:32;;;;;;;42.47;22.53;;;-0.10;93.70;;;;;;10433750;28;20217;-70
2022/12/18 11:32:39;;;;;;;40.77;21.57;;;-0.50;96.00;;;;;;10435205;28;20307;-71
2022/12/18 11:37:44;;;;;;;40.13;20.90;;;-0.90;98.50;;;;;;10433423;28;20608;-70
2022/12/18 11:43:12;;;;;;;40.00;20.40;;;-0.80;99.90;;;;;;10430693;28;20293;-69
2022/12/18 11:48:21;;;;;;;40.70;21.97;;;-0.70;99.90;;;;;;10431347;28;20239;-70
2022/12/18 11:53:24;;;;;;;43.87;21.37;;;-0.80;99.90;;;;;;10433630;28;20221;-71
2022/12/18 11:58:48;;;;;;;42.37;21.57;;;-0.90;99.90;;;;;;10427791;28;20242;-70
2022/12/18 12:04:04;;;;;;;42.03;21.03;;;-0.70;99.90;;;;;;10442188;28;20946;-71
2022/12/18 12:09:29;;;;;;;43.97;21.43;;;-0.80;99.90;;;;;;10429325;28;20212;-70
2022/12/18 12:15:03;;;;;;;41.43;21.47;;;-0.80;99.90;;;;;;10434107;28;20216;-70
2022/12/18 12:20:42;;;;;;;40.13;20.83;;;-0.70;99.90;;;;;;10429029;28;20296;-70
2022/12/18 12:26:13;;;;;;;35.37;19.47;;;-0.60;99.90;;;;;;10416139;28;20212;-70
2022/12/18 12:31:36;;;;;;;41.50;21.60;;;-0.30;99.90;;;;;;10440210;28;20200;-70
2022/12/18 12:36:51;;;;;;;40.60;21.33;;;-0.20;99.90;;;;;;10435643;28;20329;-70
2022/12/18 12:47:20;;;;;;;41.80;21.13;;;-0.50;99.90;;;;;;10438630;28;20223;-71
2022/12/18 12:52:32;;;;;;;42.20;20.67;;;-0.60;99.90;;;;;;10433098;28;20307;-70
2022/12/18 12:57:41;;;;;;;39.60;20.37;;;-0.60;99.90;;;;;;10433539;28;20258;-71
2022/12/18 13:03:08;;;;;;;44.37;22.40;;;-0.70;99.90;;;;;;10437530;28;20256;-69
2022/12/18 13:08:25;;;;;;;40.37;21.50;;;-0.70;99.90;;;;;;10443914;28;20613;-70
2022/12/18 13:13:49;;;;;;;46.57;20.80;;;-0.80;99.90;;;;;;10430293;28;20216;-71
2022/12/18 13:18:57;;;;;;;42.37;20.73;;;-1.00;99.90;;;;;;10432827;28;20234;-70
2022/12/18 13:24:15;;;;;;;46.07;21.60;;;-1.10;99.90;;;;;;10424669;28;20312;-71
2022/12/18 13:29:43;;;;;;;40.40;21.70;;;-1.30;99.90;;;;;;10434848;28;20234;-69
2022/12/18 13:34:44;;;;;;;48.47;23.70;;;-1.40;99.90;;;;;;10431692;28;20231;-70
2022/12/18 13:39:44;;;;;;;44.43;21.87;;;-1.50;99.90;;;;;;10427853;28;20340;-70
2022/12/18 13:44:46;;;;;;;43.33;21.43;;;-1.40;99.90;;;;;;10424181;28;20217;-71
2022/12/18 13:49:47;;;;;;;47.13;22.10;;;-1.40;99.90;;;;;;10432564;28;20774;-71
2022/12/18 13:54:54;;;;;;;41.13;20.53;;;-1.40;99.90;;;;;;10432051;28;20224;-71
2022/12/18 13:59:56;;;;;;;39.87;20.33;;;-1.40;99.90;;;;;;10434163;28;20236;-69
2022/12/18 14:04:56;;;;;;;42.57;20.57;;;-1.50;99.90;;;;;;10434349;28;20243;-70
2022/12/18 14:10:02;;;;;;;43.13;21.37;;;-1.60;99.90;;;;;;10431760;28;20257;-70
2022/12/18 14:15:14;;;;;;;39.53;19.67;;;-1.80;99.90;;;;;;10424641;28;20262;-70
2022/12/18 14:20:17;;;;;;;44.07;21.53;;;-1.80;99.90;;;;;;10436349;28;20216;-69
2022/12/18 14:25:21;;;;;;;42.70;20.23;;;-1.80;99.90;;;;;;10424885;28;20187;-69
2022/12/18 14:30:37;;;;;;;43.47;21.17;;;-1.70;99.90;;;;;;10429335;28;20237;-69
2022/12/18 14:35:54;;;;;;;43.03;20.73;;;-1.80;99.90;;;;;;10427408;28;20311;-69
2022/12/18 14:41:03;;;;;;;40.37;20.63;;;-1.80;99.90;;;;;;10436329;28;20301;-70
2022/12/18 14:46:32;;;;;;;40.77;20.43;;;-1.70;99.90;;;;;;10424269;28;20298;-70
2022/12/18 14:51:38;;;;;;;42.50;21.07;;;-1.80;99.90;;;;;;10431686;28;20246;-70
2022/12/18 14:56:49;;;;;;;39.10;19.63;;;-1.70;99.90;;;;;;10426207;28;20228;-70
2022/12/18 15:02:10;;;;;;;39.17;19.43;;;-1.80;99.90;;;;;;10431509;28;20268;-69
2022/12/18 15:07:11;;;;;;;40.07;19.43;;;-1.80;99.90;;;;;;10431071;28;20675;-70
2022/12/18 15:12:48;;;;;;;39.47;19.13;;;-1.80;99.90;;;;;;10424602;28;20220;-70
2022/12/18 15:17:56;;;;;;;37.63;19.87;;;-1.80;99.90;;;;;;10334516;28;20236;-71
2022/12/18 15:22:56;;;;;;;39.90;19.73;;;-1.80;99.90;;;;;;10430602;28;20224;-70
2022/12/18 15:27:57;;;;;;;42.27;19.57;;;-1.90;99.90;;;;;;10423510;28;20311;-71
2022/12/18 15:33:24;;;;;;;43.33;19.97;;;-1.90;99.90;;;;;;10429088;28;20223;-70
2022/12/18 15:38:25;;;;;;;43.57;20.53;;;-1.90;99.90;;;;;;10426119;28;20258;-70
2022/12/18 15:43:36;;;;;;;38.83;18.97;;;-1.90;99.90;;;;;;10427136;28;20705;-70
2022/12/18 15:48:42;;;;;;;39.40;19.60;;;-1.90;99.90;;;;;;10437801;28;20239;-69
2022/12/18 15:53:44;;;;;;;41.10;19.73;;;-1.90;99.90;;;;;;10431432;28;20236;-70
2022/12/18 15:58:44;;;;;;;39.73;20.07;;;-1.90;99.90;;;;;;10444218;28;20236;-69
2022/12/18 16:03:45;;;;;;;37.57;18.67;;;-2.00;99.90;;;;;;10431321;28;20231;-70
2022/12/18 16:08:46;;;;;;;39.83;20.30;;;-2.00;99.90;;;;;;10442580;28;20854;-69
2022/12/18 16:13:46;;;;;;;38.43;20.30;;;-2.00;99.90;;;;;;10436706;28;20350;-70
2022/12/18 16:18:47;;;;;;;38.80;19.50;;;-2.00;99.90;;;;;;10436246;28;20229;-70
2022/12/18 16:23:48;;;;;;;39.53;18.93;;;-2.00;99.90;;;;;;10434962;28;20612;-71
2022/12/18 16:28:48;;;;;;;39.57;18.80;;;-1.90;99.90;;;;;;10429810;28;20260;-70
2022/12/18 16:33:49;;;;;;;36.73;19.03;;;-1.90;99.90;;;;;;10445572;28;20223;-70
2022/12/18 16:38:49;;;;;;;41.40;20.43;;;-1.80;99.90;;;;;;10439833;28;20306;-71
2022/12/18 16:43:50;;;;;;;37.47;20.10;;;-1.70;99.90;;;;;;10436562;28;20238;-70
2022/12/18 16:48:50;;;;;;;36.90;18.90;;;-1.60;99.90;;;;;;10429889;28;20235;-70
2022/12/18 16:53:51;;;;;;;39.57;19.97;;;-1.60;99.90;;;;;;10433775;28;20223;-69
2022/12/18 16:58:55;;;;;;;37.83;19.57;;;-1.60;99.90;;;;;;10427362;28;20648;-69
2022/12/18 17:04:01;;;;;;;40.20;21.17;;;-1.70;99.90;;;;;;10433744;28;20701;-70
2022/12/18 17:09:04;;;;;;;40.00;21.23;;;-1.70;99.90;;;;;;10427195;28;20220;-70
2022/12/18 17:14:07;;;;;;;40.57;21.47;;;-1.60;99.90;;;;;;10435185;28;20221;-70
2022/12/18 17:19:07;;;;;;;37.67;19.67;;;-1.60;99.90;;;;;;10442991;28;20228;-71
2022/12/18 17:24:08;;;;;;;40.73;22.07;;;-1.60;99.90;;;;;;10427990;28;20667;-69
2022/12/18 17:29:14;;;;;;;45.17;25.70;;;-1.60;99.90;;;;;;10435339;28;20216;-69
2022/12/18 17:34:14;;;;;;;41.03;22.83;;;-1.50;99.90;;;;;;10433057;28;20219;-69
2022/12/18 17:39:18;;;;;;;42.70;23.43;;;-1.40;99.90;;;;;;10434159;28;20305;-71
2022/12/18 17:44:19;;;;;;;40.93;23.20;;;-1.40;99.90;;;;;;10428951;28;20225;-69
2022/12/18 17:49:20;;;;;;;46.23;23.87;;;-1.40;99.90;;;;;;10440033;28;20227;-70
2022/12/18 17:54:21;;;;;;;41.60;21.73;;;-1.30;99.90;;;;;;10436910;28;20663;-69
2022/12/18 17:59:21;;;;;;;42.50;22.53;;;-1.30;99.90;;;;;;10429395;28;20216;-70
2022/12/18 18:04:22;;;;;;;39.57;20.37;;;-1.30;99.90;;;;;;10428371;28;20300;-71
2022/12/18 18:09:23;;;;;;;41.53;22.80;;;-1.20;99.90;;;;;;10426672;28;20695;-70
2022/12/18 18:14:25;;;;;;;38.13;21.73;;;-1.10;99.90;;;;;;10427051;28;20220;-70
2022/12/18 18:19:26;;;;;;;41.63;21.93;;;-1.10;99.90;;;;;;10428787;28;20223;-69
2022/12/18 18:24:26;;;;;;;46.17;23.60;;;-1.00;99.90;;;;;;10423004;28;20217;-70
2022/12/18 18:29:31;;;;;;;42.67;23.60;;;-0.90;99.90;;;;;;10428074;28;20216;-70
2022/12/18 18:34:32;;;;;;;42.37;22.53;;;-0.90;99.90;;;;;;10423495;28;20258;-70
2022/12/18 18:39:42;;;;;;;40.23;21.53;;;-1.00;99.90;;;;;;10422506;28;20212;-70
2022/12/18 18:44:42;;;;;;;40.07;20.60;;;-1.00;99.90;;;;;;10426095;28;20294;-69
2022/12/18 18:49:43;;;;;;;40.23;22.00;;;-0.90;99.90;;;;;;10433418;28;20236;-70
2022/12/18 18:54:45;;;;;;;41.90;21.97;;;-0.90;99.90;;;;;;10430135;28;20589;-70
2022/12/18 18:59:46;;;;;;;38.77;21.13;;;-0.90;99.90;;;;;;10431644;28;20208;-70
2022/12/18 19:04:46;;;;;;;43.13;23.23;;;-0.90;99.90;;;;;;10425909;28;20212;-70
2022/12/18 19:09:50;;;;;;;40.33;22.20;;;-0.80;99.90;;;;;;10433285;28;20383;-69
2022/12/18 19:14:53;;;;;;;42.10;21.83;;;-0.80;99.90;;;;;;10430558;28;20247;-69
2022/12/18 19:19:53;;;;;;;40.37;22.33;;;-0.80;99.90;;;;;;10433599;28;20215;-69
2022/12/18 19:24:54;;;;;;;40.93;22.63;;;-0.80;99.90;;;;;;10430838;28;20629;-70
2022/12/18 19:29:54;;;;;;;38.73;21.57;;;-0.90;99.90;;;;;;10432085;28;20216;-71
2022/12/18 19:34:56;;;;;;;40.27;21.50;;;-0.90;99.90;;;;;;10438602;28;20222;-70
2022/12/18 19:39:56;;;;;;;39.43;21.50;;;-1.00;99.90;;;;;;10431655;28;20220;-70
2022/12/18 19:44:57;;;;;;;39.20;22.17;;;-1.00;99.90;;;;;;10437915;28;22642;-70
2022/12/18 19:49:57;;;;;;;38.07;22.37;;;-0.90;99.90;;;;;;10435606;28;20228;-69
2022/12/18 19:54:58;;;;;;;42.30;22.93;;;-0.90;99.90;;;;;;10438317;28;20242;-69
2022/12/18 19:59:58;;;;;;;41.57;23.07;;;-1.00;99.90;;;;;;10429816;28;20223;-70
2022/12/18 20:04:59;;;;;;;44.87;23.60;;;-1.00;99.90;;;;;;10438996;28;20257;-72
2022/12/18 20:10:00;;;;;;;50.17;26.97;;;-1.00;99.90;;;;;;10437856;28;20338;-70
2022/12/18 20:15:01;;;;;;;44.67;23.67;;;-1.10;99.90;;;;;;10437890;28;20219;-71
2022/12/18 20:20:02;;;;;;;45.60;24.27;;;-1.20;99.90;;;;;;10429695;28;20235;-71
2022/12/18 20:25:03;;;;;;;42.80;24.70;;;-1.30;99.90;;;;;;10429449;28;20231;-70
2022/12/18 20:30:04;;;;;;;41.27;23.20;;;-1.50;99.90;;;;;;10432555;28;20215;-70
2022/12/18 20:35:05;;;;;;;41.63;24.03;;;-1.50;99.90;;;;;;10434500;28;20227;-69
2022/12/18 20:40:06;;;;;;;42.77;24.13;;;-1.50;99.90;;;;;;10430679;28;20589;-71
2022/12/18 20:45:07;;;;;;;46.80;26.17;;;-1.60;99.90;;;;;;10436077;28;20195;-70
2022/12/18 20:50:08;;;;;;;44.83;25.30;;;-1.60;99.90;;;;;;10436065;28;20184;-69
2022/12/18 20:55:08;;;;;;;43.67;23.10;;;-1.50;99.90;;;;;;10429036;28;20212;-70
2022/12/18 21:00:10;;;;;;;44.43;25.23;;;-1.50;99.90;;;;;;10436688;28;20196;-70
2022/12/18 21:05:13;;;;;;;47.67;25.63;;;-1.40;99.90;;;;;;10434966;28;20185;-70
2022/12/18 21:10:14;;;;;;;45.23;25.27;;;-1.40;99.90;;;;;;10436038;28;20678;-69
2022/12/18 21:15:15;;;;;;;50.73;27.53;;;-1.30;99.90;;;;;;10433829;28;20220;-71
2022/12/18 21:20:15;;;;;;;46.77;26.33;;;-1.20;99.90;;;;;;10427793;28;20204;-70
2022/12/18 21:25:16;;;;;;;45.10;24.73;;;-1.10;99.90;;;;;;10435091;28;20195;-69
2022/12/18 21:30:17;;;;;;;43.73;24.57;;;-1.10;99.90;;;;;;10432677;28;20184;-69
2022/12/18 21:35:17;;;;;;;48.47;26.23;;;-1.10;99.90;;;;;;10427261;28;20577;-70
2022/12/18 21:40:18;;;;;;;43.37;25.13;;;-1.00;99.90;;;;;;10435012;28;20172;-69
2022/12/18 21:45:18;;;;;;;52.93;27.60;;;-1.00;99.90;;;;;;10430542;28;20211;-69
2022/12/18 21:50:19;;;;;;;47.27;27.63;;;-1.10;99.90;;;;;;10427811;28;20793;-69
2022/12/18 21:55:20;;;;;;;54.30;31.17;;;-1.10;99.90;;;;;;10425303;28;20201;-70
2022/12/18 22:00:20;;;;;;;48.13;28.40;;;-1.10;99.90;;;;;;10439598;28;20249;-70
2022/12/18 22:05:21;;;;;;;49.40;27.67;;;-1.10;99.90;;;;;;10429278;28;20203;-69
2022/12/18 22:10:21;;;;;;;47.27;26.90;;;-1.20;99.90;;;;;;10433837;28;20181;-71
2022/12/18 22:15:22;;;;;;;46.20;26.90;;;-1.10;99.90;;;;;;10432271;28;20207;-69
2022/12/18 22:20:23;;;;;;;45.60;27.07;;;-1.30;99.90;;;;;;10429796;28;20549;-70
2022/12/18 22:25:23;;;;;;;47.17;27.00;;;-1.30;99.90;;;;;;10431376;28;20287;-69
2022/12/18 22:30:24;;;;;;;49.07;27.83;;;-1.30;99.90;;;;;;10433127;28;20259;-69
2022/12/18 22:35:24;;;;;;;46.50;27.10;;;-1.30;99.90;;;;;;10427874;28;20311;-70
2022/12/18 22:40:25;;;;;;;46.43;25.93;;;-1.20;99.90;;;;;;10436455;28;20690;-69
2022/12/18 22:45:26;;;;;;;64.40;32.97;;;-1.10;99.90;;;;;;10432278;28;20226;-70
2022/12/18 22:50:27;;;;;;;68.27;35.40;;;-1.10;99.90;;;;;;10428805;28;20220;-70
2022/12/18 22:55:27;;;;;;;60.87;33.57;;;-1.00;99.90;;;;;;10432439;28;20228;-69
2022/12/18 23:00:28;;;;;;;61.43;32.83;;;-1.00;99.90;;;;;;10425928;28;20686;-69
2022/12/18 23:05:29;;;;;;;59.80;32.63;;;-0.90;99.90;;;;;;10431310;28;20218;-70
2022/12/18 23:10:30;;;;;;;60.77;32.90;;;-0.90;99.90;;;;;;10431831;28;20212;-70
2022/12/18 23:15:30;;;;;;;56.67;30.53;;;-0.80;99.90;;;;;;10430261;28;20233;-70
2022/12/18 23:20:31;;;;;;;57.57;31.47;;;-0.70;99.90;;;;;;10427685;28;20220;-70
2022/12/18 23:25:31;;;;;;;55.10;28.70;;;-0.70;99.90;;;;;;10427030;28;20250;-69
2022/12/18 23:30:32;;;;;;;45.33;26.93;;;-0.60;99.90;;;;;;10427463;28;20276;-69
2022/12/18 23:35:33;;;;;;;48.57;27.57;;;-0.60;99.90;;;;;;10427208;28;20307;-70
2022/12/18 23:40:33;;;;;;;42.83;25.87;;;-0.60;99.90;;;;;;10430775;28;20271;-69
2022/12/18 23:45:39;;;;;;;53.53;30.23;;;-0.60;99.90;;;;;;10430898;28;20688;-69
2022/12/18 23:50:39;;;;;;;97.10;42.43;;;-0.50;99.90;;;;;;10430701;28;20274;-69
2022/12/18 23:55:42;;;;;;;55.67;32.50;;;-0.40;99.90;;;;;;10431392;28;20250;-69
